createdAt,value
2023-03-17T00:03:42.029Z,10.66
2023-03-17T00:08:46.277Z,10.79
2023-03-17T00:13:49.770Z,10.82
2023-03-17T00:18:55.582Z,9.92
2023-03-17T00:23:59.483Z,10.19
2023-03-17T00:29:02.214Z,10.69
2023-03-17T00:34:07.817Z,10.21
2023-03-17T00:39:17.939Z,10.14
2023-03-17T00:44:20.631Z,9.94
2023-03-17T00:49:26.621Z,10.43
2023-03-17T00:54:29.887Z,10.00
2023-03-17T00:59:40.136Z,9.72
2023-03-17T01:04:59.564Z,9.94
2023-03-17T01:10:14.115Z,10.12
2023-03-17T01:15:17.711Z,9.78
2023-03-17T01:20:23.660Z,9.79
2023-03-17T01:25:27.552Z,9.98
2023-03-17T01:30:32.761Z,9.93
2023-03-17T01:35:38.253Z,9.21
2023-03-17T01:40:44.850Z,9.25
2023-03-17T01:46:17.171Z,9.46
2023-03-17T01:51:27.559Z,9.34
2023-03-17T01:56:30.651Z,8.95
2023-03-17T02:01:38.739Z,9.25
2023-03-17T02:06:56.928Z,9.28
2023-03-17T02:12:02.787Z,9.34
2023-03-17T02:17:06.034Z,9.43
2023-03-17T02:22:10.429Z,9.64
2023-03-17T02:27:16.407Z,9.85
2023-03-17T02:32:20.451Z,9.85
2023-03-17T02:37:24.579Z,9.38
2023-03-17T02:42:28.573Z,9.69
2023-03-17T02:47:34.720Z,9.99
2023-03-17T02:52:38.775Z,9.71
2023-03-17T02:57:41.899Z,9.68
2023-03-17T03:02:44.696Z,9.73
2023-03-17T03:07:48.813Z,9.81
2023-03-17T03:12:51.803Z,9.89
2023-03-17T03:17:54.516Z,9.74
2023-03-17T03:22:58.848Z,9.82
2023-03-17T03:28:01.605Z,9.47
2023-03-17T03:33:04.740Z,9.74
2023-03-17T03:38:09.588Z,9.79
2023-03-17T03:43:22.840Z,10.00
2023-03-17T03:48:26.574Z,9.59
2023-03-17T03:53:30.901Z,8.00
2023-03-17T03:58:33.640Z,8.68
2023-03-17T04:03:37.146Z,9.36
2023-03-17T04:08:41.260Z,9.04
2023-03-17T04:13:43.976Z,9.01
2023-03-17T04:18:46.751Z,8.79
2023-03-17T04:23:50.984Z,9.06
2023-03-17T04:28:54.640Z,8.91
2023-03-17T04:33:57.412Z,8.66
2023-03-17T04:39:01.954Z,9.02
2023-03-17T04:44:04.864Z,9.26
2023-03-17T04:49:07.600Z,9.05
2023-03-17T04:54:12.189Z,8.98
2023-03-17T04:59:16.212Z,8.90
2023-03-17T05:04:31.350Z,8.99
2023-03-17T05:09:36.244Z,8.28
2023-03-17T05:14:39.151Z,8.07
2023-03-17T05:19:42.473Z,8.63
2023-03-17T05:24:47.530Z,8.35
2023-03-17T05:29:50.392Z,8.93
2023-03-17T05:34:54.213Z,8.93
2023-03-17T05:39:58.304Z,8.79
2023-03-17T05:45:01.082Z,8.74
2023-03-17T05:50:04.901Z,8.65
2023-03-17T05:55:10.126Z,8.67
2023-03-17T06:00:17.103Z,8.90
2023-03-17T06:05:19.883Z,9.12
2023-03-17T06:10:24.022Z,9.47
2023-03-17T06:15:27.083Z,9.43
2023-03-17T06:20:30.066Z,9.60
2023-03-17T06:25:34.958Z,10.44
2023-03-17T06:30:40.622Z,10.74
2023-03-17T06:35:43.758Z,10.28
2023-03-17T06:40:47.922Z,11.12
2023-03-17T06:45:51.510Z,10.84
2023-03-17T06:50:54.298Z,11.20
2023-03-17T06:55:58.628Z,12.94
2023-03-17T07:01:01.367Z,14.16
2023-03-17T07:06:04.319Z,16.79
2023-03-17T07:11:09.396Z,18.16
2023-03-17T07:16:15.143Z,19.80
2023-03-17T07:21:18.117Z,20.34
2023-03-17T07:26:22.404Z,20.05
2023-03-17T07:31:25.530Z,20.13
2023-03-17T07:36:28.286Z,19.41
2023-03-17T07:41:32.361Z,17.88
2023-03-17T07:46:35.113Z,16.91
2023-03-17T07:51:38.682Z,16.24
2023-03-17T07:56:43.405Z,13.98
2023-03-17T08:01:46.164Z,13.47
2023-03-17T08:06:49.379Z,13.21
2023-03-17T08:11:53.700Z,12.82
2023-03-17T08:16:57.274Z,13.73
2023-03-17T08:22:00.085Z,14.39
2023-03-17T08:27:04.983Z,13.20
2023-03-17T08:32:08.661Z,14.16
2023-03-17T08:37:12.208Z,13.83
2023-03-17T08:42:17.042Z,13.94
2023-03-17T08:47:20.222Z,14.53
2023-03-17T08:52:23.338Z,14.73
2023-03-17T08:57:28.085Z,15.65
2023-03-17T09:02:30.862Z,16.58
2023-03-17T09:07:34.159Z,16.76
2023-03-17T09:12:38.788Z,16.40
2023-03-17T09:17:43.725Z,15.91
2023-03-17T09:22:47.748Z,15.75
2023-03-17T09:27:52.054Z,16.18
2023-03-17T09:32:54.896Z,16.46
2023-03-17T09:37:57.949Z,16.93
2023-03-17T09:43:16.297Z,16.70
2023-03-17T09:48:33.610Z,17.36
2023-03-17T09:53:39.115Z,18.22
2023-03-17T09:58:50.701Z,18.05
2023-03-17T10:03:53.959Z,18.78
2023-03-17T10:09:01.612Z,19.15
2023-03-17T10:14:13.752Z,19.38
2023-03-17T10:19:25.696Z,18.63
2023-03-17T10:24:32.685Z,18.73
2023-03-17T10:29:37.041Z,18.66
2023-03-17T10:34:41.477Z,19.72
2023-03-17T10:39:47.196Z,19.36
2023-03-17T10:44:55.240Z,18.79
2023-03-17T10:49:59.480Z,19.24
2023-03-17T10:55:05.562Z,19.36
2023-03-17T11:00:19.885Z,19.04
2023-03-17T11:05:25.135Z,18.63
2023-03-17T11:10:30.177Z,18.70
2023-03-17T11:15:37.813Z,18.51
2023-03-17T11:20:46.924Z,18.84
2023-03-17T11:26:00.493Z,19.77
2023-03-17T11:31:13.092Z,19.09
2023-03-17T11:36:29.465Z,19.28
2023-03-17T11:41:54.117Z,19.55
2023-03-17T11:47:04.117Z,19.58
2023-03-17T11:52:16.523Z,19.60
2023-03-17T11:57:24.706Z,19.76
2023-03-17T12:02:38.153Z,20.43
2023-03-17T12:07:47.224Z,19.93
2023-03-17T12:12:56.435Z,19.78
2023-03-17T12:18:05.586Z,19.66
2023-03-17T12:23:19.848Z,19.81
2023-03-17T12:28:25.824Z,20.20
2023-03-17T12:33:34.959Z,19.37
2023-03-17T12:38:41.074Z,19.55
2023-03-17T12:43:55.778Z,19.68
2023-03-17T12:49:31.045Z,19.85
2023-03-17T12:54:37.561Z,19.75
2023-03-17T12:59:43.836Z,19.70
2023-03-17T13:04:57.752Z,20.15
2023-03-17T13:10:38.193Z,20.36
2023-03-17T13:15:59.356Z,19.94
2023-03-17T13:21:13.743Z,19.86
2023-03-17T13:26:20.954Z,20.15
2023-03-17T13:31:34.678Z,20.05
2023-03-17T13:36:59.083Z,19.98
2023-03-17T13:42:37.312Z,19.92
2023-03-17T13:47:43.334Z,20.46
2023-03-17T13:52:49.686Z,20.24
2023-03-17T13:58:16.493Z,20.62
2023-03-17T14:03:29.048Z,20.65
2023-03-17T14:08:34.686Z,20.55
2023-03-17T14:13:46.268Z,20.28
2023-03-17T14:18:54.874Z,20.44
2023-03-17T14:23:59.189Z,20.23
2023-03-17T14:29:04.723Z,20.65
2023-03-17T14:34:14.678Z,21.00
2023-03-17T14:39:23.040Z,21.12
2023-03-17T14:44:25.888Z,21.01
2023-03-17T14:49:31.769Z,20.58
2023-03-17T14:54:36.557Z,20.37
2023-03-17T14:59:41.449Z,20.43
2023-03-17T15:04:53.995Z,20.85
2023-03-17T15:10:01.526Z,20.37
2023-03-17T15:15:10.014Z,20.65
2023-03-17T15:20:18.153Z,20.96
2023-03-17T15:25:28.513Z,21.11
2023-03-17T15:30:44.327Z,20.71
2023-03-17T15:35:51.137Z,20.04
2023-03-17T15:40:54.518Z,20.23
2023-03-17T15:46:01.304Z,19.94
2023-03-17T15:51:07.152Z,19.77
2023-03-17T15:56:19.047Z,19.64
2023-03-17T16:01:22.173Z,20.32
2023-03-17T16:06:26.418Z,19.92
2023-03-17T16:11:31.788Z,19.59
2023-03-17T16:16:38.081Z,19.78
2023-03-17T16:21:42.384Z,20.06
2023-03-17T16:26:45.386Z,19.77
2023-03-17T16:31:49.921Z,19.15
2023-03-17T16:36:54.535Z,19.17
2023-03-17T16:41:57.484Z,19.01
2023-03-17T16:47:00.478Z,18.71
2023-03-17T16:52:04.977Z,18.89
2023-03-17T16:57:08.146Z,18.81
2023-03-17T17:02:17.130Z,18.76
2023-03-17T17:07:21.204Z,18.73
2023-03-17T17:12:23.965Z,18.57
2023-03-17T17:17:28.159Z,18.46
2023-03-17T17:22:32.326Z,17.98
2023-03-17T17:27:35.029Z,18.22
2023-03-17T17:32:38.020Z,18.79
2023-03-17T17:37:42.206Z,18.24
2023-03-17T17:42:46.348Z,17.74
2023-03-17T17:47:49.954Z,17.81
2023-03-17T17:52:54.942Z,17.58
2023-03-17T17:57:57.769Z,17.81
2023-03-17T18:03:00.488Z,17.64
2023-03-17T18:08:05.120Z,17.63
2023-03-17T18:13:07.954Z,17.91
2023-03-17T18:18:10.853Z,17.88
2023-03-17T18:23:15.992Z,17.81
2023-03-17T18:28:18.785Z,17.40
2023-03-17T18:33:21.968Z,17.16
2023-03-17T18:38:26.332Z,17.28
2023-03-17T18:43:29.219Z,17.26
2023-03-17T18:48:32.050Z,17.16
2023-03-17T18:53:36.673Z,16.98
2023-03-17T18:58:39.473Z,16.93
2023-03-17T19:03:42.253Z,17.05
2023-03-17T19:08:46.764Z,17.33
2023-03-17T19:13:50.098Z,17.07
2023-03-17T19:18:52.876Z,16.96
2023-03-17T19:23:59.891Z,16.87
2023-03-17T19:29:02.626Z,16.88
2023-03-17T19:34:05.406Z,16.79
2023-03-17T19:39:11.746Z,17.30
2023-03-17T19:44:14.462Z,17.42
2023-03-17T19:49:17.982Z,17.15
2023-03-17T19:54:23.409Z,16.82
2023-03-17T19:59:26.365Z,16.96
2023-03-17T20:04:29.208Z,16.55
2023-03-17T20:09:33.368Z,16.08
2023-03-17T20:14:36.075Z,16.69
2023-03-17T20:19:39.462Z,16.98
2023-03-17T20:24:43.634Z,17.02
2023-03-17T20:29:48.475Z,16.66
2023-03-17T20:34:51.283Z,16.54
2023-03-17T20:39:57.325Z,16.54
2023-03-17T20:45:00.131Z,16.62
2023-03-17T20:50:02.992Z,16.56
2023-03-17T20:55:08.437Z,16.41
2023-03-17T21:00:16.209Z,16.53
2023-03-17T21:05:21.145Z,16.32
2023-03-17T21:10:25.870Z,16.73
2023-03-17T21:15:29.467Z,16.86
2023-03-17T21:20:32.931Z,16.76
2023-03-17T21:25:38.053Z,16.67
2023-03-17T21:30:43.563Z,14.82
2023-03-17T21:35:47.193Z,14.89
2023-03-17T21:40:51.608Z,14.94
2023-03-17T21:45:54.497Z,15.15
2023-03-17T21:50:57.215Z,15.45
2023-03-17T21:56:01.329Z,15.44
2023-03-17T22:01:04.160Z,15.45
2023-03-17T22:06:07.865Z,15.46
2023-03-17T22:11:14.440Z,15.35
2023-03-17T22:16:18.236Z,15.40
2023-03-17T22:21:21.623Z,15.34
2023-03-17T22:26:25.773Z,15.56
2023-03-17T22:31:31.610Z,15.76
2023-03-17T22:36:34.497Z,15.81
2023-03-17T22:41:39.752Z,15.81
2023-03-17T22:46:42.495Z,15.63
2023-03-17T22:51:46.595Z,15.75
2023-03-17T22:56:50.796Z,15.87
2023-03-17T23:01:53.557Z,15.86
2023-03-17T23:06:56.342Z,15.86
2023-03-17T23:12:00.630Z,15.85
2023-03-17T23:17:03.545Z,15.64
2023-03-17T23:22:06.404Z,15.57
2023-03-17T23:27:10.648Z,15.53
2023-03-17T23:32:13.829Z,15.37
2023-03-17T23:37:16.840Z,15.23
2023-03-17T23:42:21.432Z,15.17
2023-03-17T23:47:24.576Z,14.75
2023-03-17T23:52:27.282Z,14.97
2023-03-17T23:57:31.586Z,15.07
